sensor_id;sensor_type;location;lat;lon;timestamp;P1;durP1;ratioP1;P2;durP2;ratioP2
42886;SDS011;29032;56.028;92.904;2023-03-14T00:00:09;2.97;;;2.10;;
42886;SDS011;29032;56.028;92.904;2023-03-14T00:05:13;3.20;;;2.08;;
42886;SDS011;29032;56.028;92.904;2023-03-14T00:10:35;3.20;;;2.17;;
42886;SDS011;29032;56.028;92.904;2023-03-14T00:16:02;3.57;;;2.10;;
42886;SDS011;29032;56.028;92.904;2023-03-14T00:21:24;5.50;;;2.60;;
42886;SDS011;29032;56.028;92.904;2023-03-14T00:26:44;6.03;;;2.80;;
42886;SDS011;29032;56.028;92.904;2023-03-14T00:32:06;3.80;;;2.23;;
42886;SDS011;29032;56.028;92.904;2023-03-14T00:37:27;3.10;;;2.00;;
42886;SDS011;29032;56.028;92.904;2023-03-14T00:42:47;4.93;;;2.30;;
42886;SDS011;29032;56.028;92.904;2023-03-14T00:48:09;3.30;;;2.57;;
42886;SDS011;29032;56.028;92.904;2023-03-14T00:53:29;4.40;;;2.00;;
42886;SDS011;29032;56.028;92.904;2023-03-14T00:58:31;4.60;;;2.50;;
42886;SDS011;29032;56.028;92.904;2023-03-14T01:03:35;5.90;;;2.67;;
42886;SDS011;29032;56.028;92.904;2023-03-14T01:08:38;3.77;;;2.80;;
42886;SDS011;29032;56.028;92.904;2023-03-14T01:13:40;4.97;;;2.67;;
42886;SDS011;29032;56.028;92.904;2023-03-14T01:18:44;4.67;;;2.60;;
42886;SDS011;29032;56.028;92.904;2023-03-14T01:24:06;2.77;;;2.13;;
42886;SDS011;29032;56.028;92.904;2023-03-14T01:29:26;7.80;;;3.27;;
42886;SDS011;29032;56.028;92.904;2023-03-14T01:34:48;3.10;;;2.40;;
42886;SDS011;29032;56.028;92.904;2023-03-14T01:39:51;6.50;;;3.33;;
42886;SDS011;29032;56.028;92.904;2023-03-14T01:44:55;6.60;;;2.83;;
42886;SDS011;29032;56.028;92.904;2023-03-14T01:50:01;5.13;;;3.00;;
42886;SDS011;29032;56.028;92.904;2023-03-14T01:55:09;6.47;;;3.30;;
42886;SDS011;29032;56.028;92.904;2023-03-14T02:00:17;5.75;;;3.42;;
42886;SDS011;29032;56.028;92.904;2023-03-14T02:05:25;6.90;;;3.73;;
42886;SDS011;29032;56.028;92.904;2023-03-14T02:10:35;6.97;;;3.17;;
42886;SDS011;29032;56.028;92.904;2023-03-14T02:15:42;5.57;;;2.55;;
42886;SDS011;29032;56.028;92.904;2023-03-14T02:20:51;6.40;;;2.97;;
42886;SDS011;29032;56.028;92.904;2023-03-14T02:26:01;4.93;;;3.00;;
42886;SDS011;29032;56.028;92.904;2023-03-14T02:31:08;6.05;;;3.70;;
42886;SDS011;29032;56.028;92.904;2023-03-14T02:36:11;6.80;;;3.37;;
42886;SDS011;29032;56.028;92.904;2023-03-14T02:41:16;8.10;;;4.17;;
42886;SDS011;29032;56.028;92.904;2023-03-14T02:46:26;5.17;;;3.27;;
42886;SDS011;29032;56.028;92.904;2023-03-14T02:51:29;8.10;;;3.90;;
42886;SDS011;29032;56.028;92.904;2023-03-14T02:56:31;7.97;;;3.87;;
42886;SDS011;29032;56.028;92.904;2023-03-14T03:01:38;8.13;;;3.60;;
42886;SDS011;29032;56.028;92.904;2023-03-14T03:06:40;8.10;;;4.30;;
42886;SDS011;29032;56.028;92.904;2023-03-14T03:11:42;8.30;;;4.50;;
42886;SDS011;29032;56.028;92.904;2023-03-14T03:16:52;8.17;;;3.87;;
42886;SDS011;29032;56.028;92.904;2023-03-14T03:21:56;5.43;;;3.63;;
42886;SDS011;29032;56.028;92.904;2023-03-14T03:26:58;6.03;;;4.27;;
42886;SDS011;29032;56.028;92.904;2023-03-14T03:32:02;9.53;;;3.90;;
42886;SDS011;29032;56.028;92.904;2023-03-14T03:37:04;7.73;;;4.50;;
42886;SDS011;29032;56.028;92.904;2023-03-14T03:42:11;9.52;;;5.20;;
42886;SDS011;29032;56.028;92.904;2023-03-14T03:47:15;9.10;;;4.33;;
42886;SDS011;29032;56.028;92.904;2023-03-14T03:52:17;5.43;;;3.00;;
42886;SDS011;29032;56.028;92.904;2023-03-14T03:57:20;7.97;;;3.03;;
42886;SDS011;29032;56.028;92.904;2023-03-14T04:02:23;6.73;;;4.23;;
42886;SDS011;29032;56.028;92.904;2023-03-14T04:07:26;7.17;;;3.60;;
42886;SDS011;29032;56.028;92.904;2023-03-14T04:12:28;5.57;;;3.83;;
42886;SDS011;29032;56.028;92.904;2023-03-14T04:17:54;8.63;;;3.33;;
42886;SDS011;29032;56.028;92.904;2023-03-14T04:22:58;5.23;;;3.23;;
42886;SDS011;29032;56.028;92.904;2023-03-14T04:28:01;8.43;;;4.00;;
42886;SDS011;29032;56.028;92.904;2023-03-14T04:33:06;6.63;;;3.60;;
42886;SDS011;29032;56.028;92.904;2023-03-14T04:43:15;8.30;;;3.10;;
42886;SDS011;29032;56.028;92.904;2023-03-14T04:48:24;5.23;;;2.77;;
42886;SDS011;29032;56.028;92.904;2023-03-14T04:53:28;5.50;;;3.27;;
42886;SDS011;29032;56.028;92.904;2023-03-14T04:58:31;8.10;;;3.93;;
42886;SDS011;29032;56.028;92.904;2023-03-14T05:03:36;9.80;;;6.00;;
42886;SDS011;29032;56.028;92.904;2023-03-14T05:09:14;9.83;;;4.20;;
42886;SDS011;29032;56.028;92.904;2023-03-14T05:14:48;7.20;;;3.43;;
42886;SDS011;29032;56.028;92.904;2023-03-14T05:20:18;7.10;;;3.20;;
42886;SDS011;29032;56.028;92.904;2023-03-14T05:25:38;5.70;;;3.17;;
42886;SDS011;29032;56.028;92.904;2023-03-14T05:30:59;6.40;;;3.20;;
42886;SDS011;29032;56.028;92.904;2023-03-14T05:36:20;4.57;;;2.77;;
42886;SDS011;29032;56.028;92.904;2023-03-14T05:41:48;5.60;;;2.90;;
42886;SDS011;29032;56.028;92.904;2023-03-14T05:47:11;5.87;;;2.53;;
42886;SDS011;29032;56.028;92.904;2023-03-14T05:52:25;6.23;;;2.60;;
42886;SDS011;29032;56.028;92.904;2023-03-14T05:57:46;7.20;;;3.10;;
42886;SDS011;29032;56.028;92.904;2023-03-14T06:03:12;5.60;;;2.73;;
42886;SDS011;29032;56.028;92.904;2023-03-14T06:08:20;3.67;;;2.60;;
42886;SDS011;29032;56.028;92.904;2023-03-14T06:13:22;4.93;;;3.20;;
42886;SDS011;29032;56.028;92.904;2023-03-14T06:18:24;4.40;;;2.93;;
42886;SDS011;29032;56.028;92.904;2023-03-14T06:23:29;4.93;;;2.63;;
42886;SDS011;29032;56.028;92.904;2023-03-14T06:28:32;10.70;;;5.17;;
42886;SDS011;29032;56.028;92.904;2023-03-14T06:33:36;8.57;;;4.53;;
42886;SDS011;29032;56.028;92.904;2023-03-14T06:38:41;8.47;;;4.10;;
42886;SDS011;29032;56.028;92.904;2023-03-14T06:43:44;7.33;;;2.63;;
42886;SDS011;29032;56.028;92.904;2023-03-14T06:48:47;7.17;;;2.77;;
42886;SDS011;29032;56.028;92.904;2023-03-14T06:53:51;5.37;;;3.10;;
42886;SDS011;29032;56.028;92.904;2023-03-14T06:58:56;2.78;;;2.38;;
42886;SDS011;29032;56.028;92.904;2023-03-14T07:04:01;2.70;;;2.00;;
42886;SDS011;29032;56.028;92.904;2023-03-14T07:09:05;3.40;;;2.07;;
42886;SDS011;29032;56.028;92.904;2023-03-14T07:14:10;3.35;;;1.92;;
42886;SDS011;29032;56.028;92.904;2023-03-14T07:19:13;3.23;;;2.20;;
42886;SDS011;29032;56.028;92.904;2023-03-14T07:24:17;5.37;;;3.20;;
42886;SDS011;29032;56.028;92.904;2023-03-14T07:29:19;3.73;;;2.27;;
42886;SDS011;29032;56.028;92.904;2023-03-14T07:34:22;5.43;;;2.20;;
42886;SDS011;29032;56.028;92.904;2023-03-14T07:39:26;4.57;;;2.70;;
42886;SDS011;29032;56.028;92.904;2023-03-14T07:44:36;6.73;;;3.07;;
42886;SDS011;29032;56.028;92.904;2023-03-14T07:49:38;4.57;;;3.27;;
42886;SDS011;29032;56.028;92.904;2023-03-14T07:54:41;6.43;;;2.90;;
42886;SDS011;29032;56.028;92.904;2023-03-14T07:59:43;4.50;;;2.70;;
42886;SDS011;29032;56.028;92.904;2023-03-14T08:04:45;5.57;;;3.07;;
42886;SDS011;29032;56.028;92.904;2023-03-14T08:09:49;5.17;;;2.63;;
42886;SDS011;29032;56.028;92.904;2023-03-14T08:14:51;3.53;;;2.10;;
42886;SDS011;29032;56.028;92.904;2023-03-14T08:19:53;2.80;;;2.20;;
42886;SDS011;29032;56.028;92.904;2023-03-14T08:24:57;3.50;;;2.07;;
42886;SDS011;29032;56.028;92.904;2023-03-14T08:29:59;4.20;;;2.80;;
42886;SDS011;29032;56.028;92.904;2023-03-14T08:35:01;4.90;;;2.47;;
42886;SDS011;29032;56.028;92.904;2023-03-14T08:40:06;3.90;;;2.13;;
42886;SDS011;29032;56.028;92.904;2023-03-14T08:45:10;5.45;;;2.38;;
42886;SDS011;29032;56.028;92.904;2023-03-14T08:50:14;5.57;;;2.20;;
42886;SDS011;29032;56.028;92.904;2023-03-14T08:55:17;3.27;;;2.30;;
42886;SDS011;29032;56.028;92.904;2023-03-14T09:00:21;5.23;;;2.70;;
42886;SDS011;29032;56.028;92.904;2023-03-14T09:05:23;3.50;;;2.10;;
42886;SDS011;29032;56.028;92.904;2023-03-14T09:10:27;3.80;;;2.47;;
42886;SDS011;29032;56.028;92.904;2023-03-14T09:15:29;5.73;;;3.20;;
42886;SDS011;29032;56.028;92.904;2023-03-14T09:20:31;4.27;;;2.33;;
42886;SDS011;29032;56.028;92.904;2023-03-14T09:25:35;5.90;;;2.37;;
42886;SDS011;29032;56.028;92.904;2023-03-14T09:30:37;3.30;;;2.03;;
42886;SDS011;29032;56.028;92.904;2023-03-14T09:35:39;4.33;;;2.30;;
42886;SDS011;29032;56.028;92.904;2023-03-14T09:40:43;4.40;;;2.67;;
42886;SDS011;29032;56.028;92.904;2023-03-14T09:45:45;3.50;;;2.40;;
42886;SDS011;29032;56.028;92.904;2023-03-14T09:50:51;8.20;;;3.23;;
42886;SDS011;29032;56.028;92.904;2023-03-14T09:55:57;6.20;;;2.70;;
42886;SDS011;29032;56.028;92.904;2023-03-14T10:00:59;4.97;;;2.97;;
42886;SDS011;29032;56.028;92.904;2023-03-14T10:06:03;4.97;;;2.10;;
42886;SDS011;29032;56.028;92.904;2023-03-14T10:11:15;2.40;;;1.90;;
42886;SDS011;29032;56.028;92.904;2023-03-14T10:16:18;2.97;;;2.40;;
42886;SDS011;29032;56.028;92.904;2023-03-14T10:21:31;6.63;;;2.67;;
42886;SDS011;29032;56.028;92.904;2023-03-14T10:26:39;7.03;;;2.63;;
42886;SDS011;29032;56.028;92.904;2023-03-14T10:31:46;5.83;;;2.50;;
42886;SDS011;29032;56.028;92.904;2023-03-14T10:36:52;4.07;;;2.40;;
42886;SDS011;29032;56.028;92.904;2023-03-14T10:42:01;7.37;;;3.30;;
42886;SDS011;29032;56.028;92.904;2023-03-14T10:47:12;4.47;;;2.70;;
42886;SDS011;29032;56.028;92.904;2023-03-14T10:52:20;4.57;;;2.50;;
42886;SDS011;29032;56.028;92.904;2023-03-14T10:57:25;3.60;;;2.87;;
42886;SDS011;29032;56.028;92.904;2023-03-14T11:02:34;5.30;;;3.67;;
42886;SDS011;29032;56.028;92.904;2023-03-14T11:07:48;8.13;;;4.53;;
42886;SDS011;29032;56.028;92.904;2023-03-14T11:12:56;8.03;;;5.03;;
42886;SDS011;29032;56.028;92.904;2023-03-14T11:18:16;11.67;;;5.40;;
42886;SDS011;29032;56.028;92.904;2023-03-14T11:23:40;9.13;;;5.73;;
42886;SDS011;29032;56.028;92.904;2023-03-14T11:28:56;8.93;;;4.83;;
42886;SDS011;29032;56.028;92.904;2023-03-14T11:34:01;11.43;;;5.03;;
42886;SDS011;29032;56.028;92.904;2023-03-14T11:39:12;12.90;;;6.53;;
42886;SDS011;29032;56.028;92.904;2023-03-14T11:44:19;12.50;;;7.43;;
42886;SDS011;29032;56.028;92.904;2023-03-14T11:49:26;12.40;;;7.50;;
42886;SDS011;29032;56.028;92.904;2023-03-14T11:54:37;14.03;;;7.77;;
42886;SDS011;29032;56.028;92.904;2023-03-14T11:59:47;13.13;;;8.03;;
42886;SDS011;29032;56.028;92.904;2023-03-14T12:04:55;16.17;;;8.83;;
42886;SDS011;29032;56.028;92.904;2023-03-14T12:10:22;24.00;;;15.23;;
42886;SDS011;29032;56.028;92.904;2023-03-14T12:15:26;31.63;;;17.70;;
42886;SDS011;29032;56.028;92.904;2023-03-14T12:20:28;38.17;;;19.80;;
42886;SDS011;29032;56.028;92.904;2023-03-14T12:25:31;72.70;;;33.60;;
42886;SDS011;29032;56.028;92.904;2023-03-14T12:30:37;73.40;;;35.63;;
42886;SDS011;29032;56.028;92.904;2023-03-14T12:35:40;69.10;;;33.73;;
42886;SDS011;29032;56.028;92.904;2023-03-14T12:40:47;62.13;;;33.27;;
42886;SDS011;29032;56.028;92.904;2023-03-14T12:46:09;43.83;;;25.00;;
42886;SDS011;29032;56.028;92.904;2023-03-14T12:51:21;54.33;;;26.47;;
42886;SDS011;29032;56.028;92.904;2023-03-14T12:56:35;55.00;;;27.97;;
42886;SDS011;29032;56.028;92.904;2023-03-14T13:02:10;47.23;;;23.90;;
42886;SDS011;29032;56.028;92.904;2023-03-14T13:07:35;33.10;;;20.00;;
42886;SDS011;29032;56.028;92.904;2023-03-14T13:12:54;51.77;;;21.87;;
42886;SDS011;29032;56.028;92.904;2023-03-14T13:18:01;43.43;;;19.23;;
42886;SDS011;29032;56.028;92.904;2023-03-14T13:28:08;37.90;;;17.60;;
42886;SDS011;29032;56.028;92.904;2023-03-14T13:33:14;40.03;;;19.80;;
42886;SDS011;29032;56.028;92.904;2023-03-14T13:38:18;41.07;;;23.40;;
42886;SDS011;29032;56.028;92.904;2023-03-14T13:43:23;41.53;;;23.77;;
42886;SDS011;29032;56.028;92.904;2023-03-14T13:48:30;37.45;;;22.58;;
42886;SDS011;29032;56.028;92.904;2023-03-14T13:53:42;51.07;;;27.93;;
42886;SDS011;29032;56.028;92.904;2023-03-14T13:58:45;49.10;;;26.97;;
42886;SDS011;29032;56.028;92.904;2023-03-14T14:03:50;51.17;;;28.80;;
42886;SDS011;29032;56.028;92.904;2023-03-14T14:08:54;59.10;;;32.05;;
42886;SDS011;29032;56.028;92.904;2023-03-14T14:13:57;62.23;;;33.10;;
42886;SDS011;29032;56.028;92.904;2023-03-14T14:19:01;57.07;;;31.07;;
42886;SDS011;29032;56.028;92.904;2023-03-14T14:24:04;63.50;;;32.80;;
42886;SDS011;29032;56.028;92.904;2023-03-14T14:29:26;60.87;;;33.50;;
42886;SDS011;29032;56.028;92.904;2023-03-14T14:34:32;36.37;;;20.33;;
42886;SDS011;29032;56.028;92.904;2023-03-14T14:39:40;52.97;;;28.67;;
42886;SDS011;29032;56.028;92.904;2023-03-14T14:44:43;61.10;;;32.37;;
42886;SDS011;29032;56.028;92.904;2023-03-14T14:49:48;49.97;;;27.13;;
42886;SDS011;29032;56.028;92.904;2023-03-14T14:54:51;33.30;;;17.30;;
42886;SDS011;29032;56.028;92.904;2023-03-14T14:59:54;32.37;;;17.90;;
42886;SDS011;29032;56.028;92.904;2023-03-14T15:04:59;30.33;;;17.07;;
42886;SDS011;29032;56.028;92.904;2023-03-14T15:10:01;33.53;;;16.70;;
42886;SDS011;29032;56.028;92.904;2023-03-14T15:15:04;22.50;;;11.03;;
42886;SDS011;29032;56.028;92.904;2023-03-14T15:20:11;19.23;;;11.57;;
42886;SDS011;29032;56.028;92.904;2023-03-14T15:25:15;17.53;;;9.20;;
42886;SDS011;29032;56.028;92.904;2023-03-14T15:30:18;12.47;;;7.33;;
42886;SDS011;29032;56.028;92.904;2023-03-14T15:35:21;10.27;;;5.87;;
42886;SDS011;29032;56.028;92.904;2023-03-14T15:40:23;9.90;;;5.83;;
42886;SDS011;29032;56.028;92.904;2023-03-14T15:45:26;8.60;;;5.60;;
42886;SDS011;29032;56.028;92.904;2023-03-14T15:50:30;10.27;;;5.80;;
42886;SDS011;29032;56.028;92.904;2023-03-14T15:55:32;10.03;;;5.20;;
42886;SDS011;29032;56.028;92.904;2023-03-14T16:00:34;14.93;;;6.77;;
42886;SDS011;29032;56.028;92.904;2023-03-14T16:05:38;10.50;;;6.40;;
42886;SDS011;29032;56.028;92.904;2023-03-14T16:10:40;10.03;;;6.33;;
42886;SDS011;29032;56.028;92.904;2023-03-14T16:15:42;8.77;;;5.27;;
42886;SDS011;29032;56.028;92.904;2023-03-14T16:20:56;8.77;;;5.43;;
42886;SDS011;29032;56.028;92.904;2023-03-14T16:26:02;7.00;;;4.93;;
42886;SDS011;29032;56.028;92.904;2023-03-14T16:31:05;8.07;;;4.73;;
42886;SDS011;29032;56.028;92.904;2023-03-14T16:36:10;9.63;;;5.10;;
42886;SDS011;29032;56.028;92.904;2023-03-14T16:41:14;9.13;;;4.67;;
42886;SDS011;29032;56.028;92.904;2023-03-14T16:46:17;11.70;;;5.00;;
42886;SDS011;29032;56.028;92.904;2023-03-14T16:51:21;9.73;;;5.33;;
42886;SDS011;29032;56.028;92.904;2023-03-14T16:56:23;9.87;;;5.30;;
42886;SDS011;29032;56.028;92.904;2023-03-14T17:01:25;8.43;;;5.87;;
42886;SDS011;29032;56.028;92.904;2023-03-14T17:06:29;9.63;;;5.00;;
42886;SDS011;29032;56.028;92.904;2023-03-14T17:11:31;7.90;;;4.50;;
42886;SDS011;29032;56.028;92.904;2023-03-14T17:16:34;10.63;;;5.67;;
42886;SDS011;29032;56.028;92.904;2023-03-14T17:21:37;10.83;;;5.50;;
42886;SDS011;29032;56.028;92.904;2023-03-14T17:26:39;7.50;;;4.27;;
42886;SDS011;29032;56.028;92.904;2023-03-14T17:31:41;8.00;;;4.70;;
42886;SDS011;29032;56.028;92.904;2023-03-14T17:36:45;9.57;;;5.20;;
42886;SDS011;29032;56.028;92.904;2023-03-14T17:41:47;10.33;;;5.60;;
42886;SDS011;29032;56.028;92.904;2023-03-14T17:46:49;9.10;;;4.50;;
42886;SDS011;29032;56.028;92.904;2023-03-14T17:51:53;11.57;;;4.77;;
42886;SDS011;29032;56.028;92.904;2023-03-14T17:56:55;8.33;;;4.90;;
42886;SDS011;29032;56.028;92.904;2023-03-14T18:01:57;9.80;;;5.23;;
42886;SDS011;29032;56.028;92.904;2023-03-14T18:07:01;9.70;;;5.07;;
42886;SDS011;29032;56.028;92.904;2023-03-14T18:12:03;9.47;;;4.70;;
42886;SDS011;29032;56.028;92.904;2023-03-14T18:17:05;8.47;;;5.17;;
42886;SDS011;29032;56.028;92.904;2023-03-14T18:22:09;6.03;;;3.80;;
42886;SDS011;29032;56.028;92.904;2023-03-14T18:27:11;7.73;;;4.90;;
42886;SDS011;29032;56.028;92.904;2023-03-14T18:32:13;6.23;;;3.97;;
42886;SDS011;29032;56.028;92.904;2023-03-14T18:37:18;10.37;;;5.20;;
42886;SDS011;29032;56.028;92.904;2023-03-14T18:42:20;9.93;;;4.43;;
42886;SDS011;29032;56.028;92.904;2023-03-14T18:47:22;8.20;;;3.87;;
42886;SDS011;29032;56.028;92.904;2023-03-14T18:52:25;13.10;;;6.03;;
42886;SDS011;29032;56.028;92.904;2023-03-14T18:57:27;17.97;;;8.17;;
42886;SDS011;29032;56.028;92.904;2023-03-14T19:02:30;16.80;;;7.30;;
42886;SDS011;29032;56.028;92.904;2023-03-14T19:07:33;16.03;;;6.53;;
42886;SDS011;29032;56.028;92.904;2023-03-14T19:12:36;8.87;;;5.03;;
42886;SDS011;29032;56.028;92.904;2023-03-14T19:17:38;8.07;;;4.50;;
42886;SDS011;29032;56.028;92.904;2023-03-14T19:22:41;8.13;;;4.00;;
42886;SDS011;29032;56.028;92.904;2023-03-14T19:27:43;6.80;;;4.00;;
42886;SDS011;29032;56.028;92.904;2023-03-14T19:32:45;8.77;;;3.73;;
42886;SDS011;29032;56.028;92.904;2023-03-14T19:37:49;8.60;;;5.00;;
42886;SDS011;29032;56.028;92.904;2023-03-14T19:42:51;8.40;;;5.87;;
42886;SDS011;29032;56.028;92.904;2023-03-14T19:47:53;6.07;;;3.30;;
42886;SDS011;29032;56.028;92.904;2023-03-14T19:52:57;4.83;;;3.10;;
42886;SDS011;29032;56.028;92.904;2023-03-14T19:57:59;4.50;;;3.20;;
42886;SDS011;29032;56.028;92.904;2023-03-14T20:03:02;7.87;;;3.30;;
42886;SDS011;29032;56.028;92.904;2023-03-14T20:08:06;7.30;;;3.10;;
42886;SDS011;29032;56.028;92.904;2023-03-14T20:13:08;5.43;;;3.37;;
42886;SDS011;29032;56.028;92.904;2023-03-14T20:18:10;8.77;;;4.07;;
42886;SDS011;29032;56.028;92.904;2023-03-14T20:23:14;5.73;;;3.60;;
42886;SDS011;29032;56.028;92.904;2023-03-14T20:28:16;6.93;;;3.40;;
42886;SDS011;29032;56.028;92.904;2023-03-14T20:33:18;5.57;;;3.40;;
42886;SDS011;29032;56.028;92.904;2023-03-14T20:38:21;5.10;;;3.70;;
42886;SDS011;29032;56.028;92.904;2023-03-14T20:43:24;7.67;;;3.50;;
42886;SDS011;29032;56.028;92.904;2023-03-14T20:48:27;4.93;;;2.80;;
42886;SDS011;29032;56.028;92.904;2023-03-14T20:53:32;3.93;;;2.80;;
42886;SDS011;29032;56.028;92.904;2023-03-14T20:58:34;4.27;;;3.00;;
42886;SDS011;29032;56.028;92.904;2023-03-14T21:03:36;3.07;;;2.57;;
42886;SDS011;29032;56.028;92.904;2023-03-14T21:08:39;5.20;;;2.70;;
42886;SDS011;29032;56.028;92.904;2023-03-14T21:13:42;3.37;;;2.23;;
42886;SDS011;29032;56.028;92.904;2023-03-14T21:18:44;4.50;;;2.80;;
42886;SDS011;29032;56.028;92.904;2023-03-14T21:23:47;4.47;;;2.87;;
42886;SDS011;29032;56.028;92.904;2023-03-14T21:28:50;4.03;;;2.70;;
42886;SDS011;29032;56.028;92.904;2023-03-14T21:33:52;4.47;;;2.67;;
42886;SDS011;29032;56.028;92.904;2023-03-14T21:38:55;3.97;;;2.50;;
42886;SDS011;29032;56.028;92.904;2023-03-14T21:43:57;5.90;;;2.80;;
42886;SDS011;29032;56.028;92.904;2023-03-14T21:49:00;3.67;;;2.20;;
42886;SDS011;29032;56.028;92.904;2023-03-14T21:54:03;5.27;;;2.60;;
42886;SDS011;29032;56.028;92.904;2023-03-14T21:59:05;4.70;;;2.80;;
42886;SDS011;29032;56.028;92.904;2023-03-14T22:04:08;3.50;;;2.30;;
42886;SDS011;29032;56.028;92.904;2023-03-14T22:09:12;3.37;;;2.50;;
42886;SDS011;29032;56.028;92.904;2023-03-14T22:14:14;6.43;;;3.60;;
42886;SDS011;29032;56.028;92.904;2023-03-14T22:19:16;5.07;;;2.77;;
42886;SDS011;29032;56.028;92.904;2023-03-14T22:24:20;4.17;;;2.67;;
42886;SDS011;29032;56.028;92.904;2023-03-14T22:29:22;3.83;;;2.80;;
42886;SDS011;29032;56.028;92.904;2023-03-14T22:34:25;4.57;;;2.60;;
42886;SDS011;29032;56.028;92.904;2023-03-14T22:39:28;3.53;;;2.60;;
42886;SDS011;29032;56.028;92.904;2023-03-14T22:44:31;5.27;;;3.00;;
42886;SDS011;29032;56.028;92.904;2023-03-14T22:49:33;6.23;;;4.00;;
42886;SDS011;29032;56.028;92.904;2023-03-14T22:54:37;7.03;;;3.77;;
42886;SDS011;29032;56.028;92.904;2023-03-14T22:59:39;9.87;;;4.23;;
42886;SDS011;29032;56.028;92.904;2023-03-14T23:04:41;11.20;;;5.13;;
42886;SDS011;29032;56.028;92.904;2023-03-14T23:09:44;7.90;;;4.60;;
42886;SDS011;29032;56.028;92.904;2023-03-14T23:14:47;8.00;;;4.13;;
42886;SDS011;29032;56.028;92.904;2023-03-14T23:19:49;5.83;;;3.47;;
42886;SDS011;29032;56.028;92.904;2023-03-14T23:24:52;6.17;;;3.53;;
42886;SDS011;29032;56.028;92.904;2023-03-14T23:29:55;5.30;;;3.60;;
42886;SDS011;29032;56.028;92.904;2023-03-14T23:34:57;12.87;;;4.13;;
42886;SDS011;29032;56.028;92.904;2023-03-14T23:40:00;9.20;;;4.40;;
42886;SDS011;29032;56.028;92.904;2023-03-14T23:45:03;12.43;;;4.10;;
42886;SDS011;29032;56.028;92.904;2023-03-14T23:50:06;7.67;;;4.40;;
42886;SDS011;29032;56.028;92.904;2023-03-14T23:55:10;10.63;;;5.30;;
